»·PEaware :: CORN22 KEND-KEND

CORN22 :: KEND-KEND

FLIGHT INFORMATION

Flight Status: Arrived
Operator: Unknown
More flights by this operator :: More flights under this callsign
Pilot: John N. (22067)
Aircraft: BEECH AIRCRAFT T-6A TEXAN
(TEX2)
More flights by this aircraft type
Origin: KEND Vance AFB
United States
Destination: KEND Vance AFB
United States
More flights between these airports :: More routes between these airports
Route: END5 EH
File this flight plan on PilotEdge
Remarks:
Altitude:
(Current/Filed)
0ft
Speed:
(Current/Filed)
0kts
Departed: 21-Jan-22 11:20 AM
Arrived: 21-Jan-22 11:52 AM
Distance/Time
Traveled:
9nm/0:32
Distance/Time
To Go:
Arrived

Flight Plot

Page will automatically refresh every two minutes.

Flight plan parsing failed; only flown route is shown


Map Options




Map Legend


Flown Route
Filed Route
Departure Airport
Arrival Airport
Navaid (VOR, NDB)
Fix

Horizontal Profiles

Position Reports

Time Latitude Longitude Heading Altitude Ground
Speed
21-Jan-22 11:10 36.333514 -97.910075 306 1310ft 0kts
21-Jan-22 11:11 36.333514 -97.910075 306 1310ft 0kts
21-Jan-22 11:11 36.333514 -97.910075 306 1310ft 0kts
21-Jan-22 11:12 36.333514 -97.910075 306 1310ft 0kts
21-Jan-22 11:14 36.333514 -97.910075 306 1310ft 0kts
21-Jan-22 11:15 36.333514 -97.910075 306 1310ft 0kts
21-Jan-22 11:15 36.333514 -97.910075 306 1310ft 0kts
21-Jan-22 11:16 36.333514 -97.910075 306 1310ft 0kts
21-Jan-22 11:17 36.333514 -97.910076 306 1310ft 0kts
21-Jan-22 11:18 36.333793 -97.910964 356 1310ft 5kts
21-Jan-22 11:19 36.361062 -97.909562 11 1866ft 171kts
21-Jan-22 11:20 36.412534 -97.898464 10 4046ft 183kts
21-Jan-22 11:21 36.463041 -97.873738 61 5110ft 245kts
21-Jan-22 11:22 36.452950 -97.791492 103 4909ft 230kts
21-Jan-22 11:23 36.445832 -97.716457 81 6651ft 186kts
21-Jan-22 11:24 36.473555 -97.672820 24 9673ft 155kts
21-Jan-22 11:25 36.511005 -97.680572 296 12034ft 165kts
21-Jan-22 11:26 36.482891 -97.707558 144 13847ft 200kts
21-Jan-22 11:27 36.456188 -97.639016 90 14591ft 249kts
21-Jan-22 11:28 36.482958 -97.557824 57 15130ft 258kts
21-Jan-22 11:29 36.533995 -97.500879 8 14935ft 253kts
21-Jan-22 11:30 36.560483 -97.561706 238 14549ft 266kts
21-Jan-22 11:31 36.506441 -97.585617 123 15033ft 262kts
21-Jan-22 11:32 36.522396 -97.501536 39 15427ft 267kts
21-Jan-22 11:33 36.572391 -97.533285 257 12645ft 252kts
21-Jan-22 11:34 36.534832 -97.524530 26 8786ft 192kts
21-Jan-22 11:35 36.524605 -97.582699 234 6473ft 218kts
21-Jan-22 11:36 36.483924 -97.641219 239 6056ft 218kts
21-Jan-22 11:37 36.446263 -97.703328 226 6166ft 227kts
21-Jan-22 11:38 36.396561 -97.752404 220 6084ft 235kts
21-Jan-22 11:39 36.335210 -97.784530 189 5316ft 252kts
21-Jan-22 11:40 36.269289 -97.804544 198 5124ft 243kts
21-Jan-22 11:41 36.208171 -97.833467 216 4345ft 219kts
21-Jan-22 11:42 36.200166 -97.896064 274 2693ft 180kts
21-Jan-22 11:43 36.236313 -97.908592 0 2274ft 190kts
21-Jan-22 11:44 36.289430 -97.911198 358 2450ft 196kts
21-Jan-22 11:45 36.342525 -97.909071 40 2331ft 183kts
21-Jan-22 11:46 36.311690 -97.900680 248 2149ft 121kts
21-Jan-22 11:47 36.334232 -97.914602 357 1323ft 102kts
21-Jan-22 11:48 36.366997 -97.900968 81 2190ft 145kts
21-Jan-22 11:49 36.331333 -97.895979 182 2135ft 134kts
21-Jan-22 11:50 36.333602 -97.910993 0 1322ft 93kts
21-Jan-22 11:51 36.345307 -97.910970 0 1310ft 13kts
21-Jan-22 11:52 36.346643 -97.910251 86 1310ft 0kts
21-Jan-22 11:54 36.346889 -97.910128 223 1310ft 0kts
21-Jan-22 11:55 36.346889 -97.910128 223 1310ft 0kts
21-Jan-22 11:56 36.346889 -97.910128 223 1310ft 0kts
21-Jan-22 11:59 36.333514 -97.910075 306 1310ft 0kts
21-Jan-22 12:00 36.333729 -97.910476 268 1310ft 5kts
21-Jan-22 12:01 36.344317 -97.910892 0 1371ft 132kts
21-Jan-22 12:02 36.393246 -97.901393 9 3108ft 181kts
21-Jan-22 12:03 36.442185 -97.891791 8 5233ft 192kts
21-Jan-22 12:04 36.452860 -97.840955 109 4998ft 228kts
21-Jan-22 12:05 36.423414 -97.769909 134 6606ft 202kts
21-Jan-22 12:06 36.382454 -97.728894 144 9601ft 186kts

Navigation Log

Ident Type
Flight plan parsing failed, navigation log unavailable